createdAt,value
2018-02-09T00:01:03.151Z,68.80
2018-02-09T00:03:29.440Z,78.53
2018-02-09T00:05:56.107Z,78.03
2018-02-09T00:08:22.499Z,74.62
2018-02-09T00:10:48.848Z,73.62
2018-02-09T00:13:15.159Z,82.65
2018-02-09T00:15:41.513Z,82.10
2018-02-09T00:18:07.903Z,82.20
2018-02-09T00:20:34.947Z,73.90
2018-02-09T00:23:01.260Z,84.53
2018-02-09T00:25:27.551Z,66.57
2018-02-09T00:27:54.216Z,77.68
2018-02-09T00:30:20.649Z,78.43
2018-02-09T00:32:46.939Z,91.72
2018-02-09T00:35:13.618Z,85.10
2018-02-09T00:37:39.948Z,79.00
2018-02-09T00:40:06.242Z,84.45
2018-02-09T00:42:33.012Z,72.97
2018-02-09T00:44:59.320Z,80.05
2018-02-09T00:47:25.634Z,69.43
2018-02-09T00:49:52.043Z,79.47
2018-02-09T00:52:19.026Z,87.53
2018-02-09T00:54:45.368Z,79.30
2018-02-09T00:57:11.725Z,83.12
2018-02-09T00:59:38.112Z,76.95
2018-02-09T01:02:04.415Z,86.97
2018-02-09T01:04:30.896Z,83.07
2018-02-09T01:06:57.248Z,89.57
2018-02-09T01:09:23.652Z,80.12
2018-02-09T01:11:49.987Z,75.05
2018-02-09T01:14:16.342Z,86.68
2018-02-09T01:16:42.710Z,88.32
2018-02-09T01:19:09.124Z,75.47
2018-02-09T01:21:35.415Z,79.15
2018-02-09T01:24:01.708Z,91.57
2018-02-09T01:26:28.747Z,74.53
2018-02-09T01:28:55.530Z,89.30
2018-02-09T01:31:21.919Z,84.53
2018-02-09T01:33:48.268Z,83.57
2018-02-09T01:36:15.296Z,86.00
2018-02-09T01:38:41.679Z,79.05
2018-02-09T01:41:08.649Z,99.15
2018-02-09T01:43:34.936Z,78.37
2018-02-09T01:46:01.242Z,84.43
2018-02-09T01:48:28.307Z,76.00
2018-02-09T01:50:55.367Z,71.65
2018-02-09T01:53:21.732Z,78.85
2018-02-09T01:55:48.159Z,77.25
2018-02-09T01:58:14.503Z,74.20
2018-02-09T02:00:40.860Z,80.55
2018-02-09T02:03:08.280Z,86.22
2018-02-09T02:05:34.616Z,84.22
2018-02-09T02:08:00.916Z,87.72
2018-02-09T02:10:27.210Z,73.60
2018-02-09T02:12:53.515Z,79.60
2018-02-09T02:15:19.835Z,74.05
2018-02-09T02:17:46.179Z,99.10
2018-02-09T02:20:12.536Z,84.03
2018-02-09T02:22:39.604Z,78.05
2018-02-09T02:25:06.746Z,69.62
2018-02-09T02:27:33.088Z,81.03
2018-02-09T02:29:59.398Z,89.72
2018-02-09T02:32:25.825Z,78.32
2018-02-09T02:34:52.873Z,92.15
2018-02-09T02:37:19.147Z,84.18
2018-02-09T02:39:45.500Z,91.93
2018-02-09T02:42:11.824Z,81.10
2018-02-09T02:44:38.112Z,83.00
2018-02-09T02:47:04.522Z,76.22
2018-02-09T02:49:30.852Z,73.10
2018-02-09T02:51:57.190Z,84.25
2018-02-09T02:54:23.888Z,84.55
2018-02-09T02:56:50.184Z,73.82
2018-02-09T02:59:16.514Z,84.50
2018-02-09T03:01:42.848Z,83.65
2018-02-09T03:04:09.164Z,81.30
2018-02-09T03:06:35.473Z,93.95
2018-02-09T03:09:01.924Z,80.18
2018-02-09T03:11:29.058Z,77.55
2018-02-09T03:13:55.370Z,77.07
2018-02-09T03:16:21.987Z,70.15
2018-02-09T03:18:48.332Z,89.93
2018-02-09T03:21:14.628Z,80.85
2018-02-09T03:23:40.936Z,88.87
2018-02-09T03:26:07.295Z,81.30
2018-02-09T03:28:34.187Z,81.75
2018-02-09T03:31:00.621Z,76.15
2018-02-09T03:33:26.925Z,86.37
2018-02-09T03:35:53.277Z,75.70
2018-02-09T03:38:19.583Z,69.68
2018-02-09T03:40:45.943Z,78.53
2018-02-09T03:43:12.991Z,87.62
2018-02-09T03:45:39.319Z,92.43
2018-02-09T03:48:06.599Z,77.05
2018-02-09T03:50:33.662Z,75.00
2018-02-09T03:53:00.692Z,75.03
2018-02-09T03:55:27.734Z,85.60
2018-02-09T03:57:54.043Z,86.03
2018-02-09T04:00:20.323Z,76.32
2018-02-09T04:02:46.673Z,85.35
2018-02-09T04:05:13.803Z,73.57
2018-02-09T04:07:40.227Z,79.60
2018-02-09T04:10:07.259Z,83.72
2018-02-09T04:12:34.344Z,82.57
2018-02-09T04:15:00.694Z,78.12
2018-02-09T04:17:27.015Z,86.50
2018-02-09T04:19:53.340Z,76.62
2018-02-09T04:22:19.639Z,74.37
2018-02-09T04:24:46.680Z,80.87
2018-02-09T04:27:13.813Z,78.75
2018-02-09T04:29:40.106Z,76.07
2018-02-09T04:32:06.431Z,69.32
2018-02-09T04:34:32.808Z,77.57
2018-02-09T04:36:59.123Z,82.25
2018-02-09T04:39:25.526Z,69.15
2018-02-09T04:41:51.863Z,79.82
2018-02-09T04:44:18.221Z,73.90
2018-02-09T04:46:44.515Z,83.85
2018-02-09T04:49:10.835Z,70.72
2018-02-09T04:51:37.986Z,72.07
2018-02-09T04:54:04.408Z,80.60
2018-02-09T04:56:31.488Z,73.57
2018-02-09T04:58:57.839Z,66.57
2018-02-09T05:01:24.142Z,77.62
2018-02-09T05:03:50.458Z,81.65
2018-02-09T05:06:16.845Z,78.97
2018-02-09T05:08:43.195Z,72.75
2018-02-09T05:11:09.503Z,77.80
2018-02-09T05:13:35.857Z,74.80
2018-02-09T05:16:02.907Z,72.12
2018-02-09T05:18:29.975Z,75.40
2018-02-09T05:20:57.039Z,73.30
2018-02-09T05:23:23.403Z,56.58
2018-02-09T05:25:49.735Z,68.95
2018-02-09T05:28:16.065Z,69.80
2018-02-09T05:30:42.369Z,66.65
2018-02-09T05:33:08.667Z,69.28
2018-02-09T05:35:35.735Z,75.75
2018-02-09T05:38:02.040Z,72.95
2018-02-09T05:40:29.083Z,68.72
2018-02-09T05:42:55.415Z,76.47
2018-02-09T05:45:22.464Z,62.15
2018-02-09T05:47:49.516Z,68.32
2018-02-09T05:50:16.557Z,62.45
2018-02-09T05:52:43.623Z,71.57
2018-02-09T05:55:10.080Z,77.65
2018-02-09T05:57:37.183Z,71.47
2018-02-09T06:00:04.303Z,69.00
2018-02-09T06:02:30.680Z,73.32
2018-02-09T06:04:57.817Z,72.90
2018-02-09T06:07:24.875Z,72.68
2018-02-09T06:09:51.945Z,70.35
2018-02-09T06:12:18.263Z,83.32
2018-02-09T06:14:45.288Z,70.37
2018-02-09T06:17:12.369Z,63.67
2018-02-09T06:19:38.683Z,74.50
2018-02-09T06:22:04.969Z,71.53
2018-02-09T06:24:31.308Z,89.62
2018-02-09T06:26:57.748Z,85.87
2018-02-09T06:29:24.883Z,66.93
2018-02-09T06:31:51.219Z,75.25
2018-02-09T06:34:17.518Z,71.37
2018-02-09T06:36:43.886Z,77.93
2018-02-09T06:39:10.187Z,79.40
2018-02-09T06:41:36.483Z,68.87
2018-02-09T06:44:03.616Z,74.93
2018-02-09T06:46:29.954Z,67.80
2018-02-09T06:48:57.027Z,74.05
2018-02-09T06:51:23.391Z,77.78
2018-02-09T06:53:49.692Z,77.10
2018-02-09T06:56:16.052Z,78.55
2018-02-09T06:58:43.487Z,79.10
2018-02-09T07:01:09.782Z,76.15
2018-02-09T07:03:36.073Z,63.17
2018-02-09T07:06:02.415Z,80.35
2018-02-09T07:08:28.730Z,76.07
2018-02-09T07:10:55.042Z,70.28
2018-02-09T07:13:22.421Z,67.80
2018-02-09T07:15:48.695Z,74.95
2018-02-09T07:18:14.973Z,77.30
2018-02-09T07:20:41.287Z,84.47
2018-02-09T07:23:07.799Z,81.60
2018-02-09T07:25:34.863Z,82.20
2018-02-09T07:28:01.191Z,86.68
2018-02-09T07:30:28.347Z,72.07
2018-02-09T07:32:54.647Z,79.05
2018-02-09T07:35:20.936Z,68.62
2018-02-09T07:37:47.263Z,75.55
2018-02-09T07:40:13.626Z,68.60
2018-02-09T07:42:40.026Z,71.97
2018-02-09T07:45:06.326Z,60.53
2018-02-09T07:47:32.789Z,74.62
2018-02-09T07:49:59.075Z,66.68
2018-02-09T07:52:26.194Z,65.62
2018-02-09T07:54:52.508Z,67.03
2018-02-09T07:57:18.856Z,66.18
2018-02-09T07:59:45.156Z,54.53
2018-02-09T08:02:11.431Z,59.75
2018-02-09T08:04:37.834Z,57.10
2018-02-09T08:07:04.196Z,69.55
2018-02-09T08:09:30.635Z,62.10
2018-02-09T08:11:56.968Z,67.32
2018-02-09T08:14:23.276Z,61.83
2018-02-09T08:16:49.577Z,74.65
2018-02-09T08:19:16.724Z,57.88
2018-02-09T08:21:43.007Z,57.50
2018-02-09T08:24:09.296Z,64.07
2018-02-09T08:26:35.595Z,66.93
2018-02-09T08:29:01.900Z,65.22
2018-02-09T08:31:29.079Z,65.28
2018-02-09T08:33:55.411Z,71.32
2018-02-09T08:36:21.784Z,73.32
2018-02-09T08:38:48.113Z,64.28
2018-02-09T08:41:14.451Z,69.65
2018-02-09T08:43:40.764Z,68.43
2018-02-09T08:46:07.164Z,64.03
2018-02-09T08:48:33.586Z,61.97
2018-02-09T08:51:00.672Z,71.07
2018-02-09T08:53:26.991Z,77.50
2018-02-09T08:55:53.384Z,70.55
2018-02-09T08:58:19.732Z,67.87
2018-02-09T09:00:46.031Z,64.70
2018-02-09T09:03:12.383Z,78.22
2018-02-09T09:05:39.473Z,69.53
2018-02-09T09:08:05.823Z,72.78
2018-02-09T09:10:32.150Z,70.80
2018-02-09T09:12:59.312Z,64.87
2018-02-09T09:15:25.639Z,69.70
2018-02-09T09:17:52.010Z,70.18
2018-02-09T09:20:19.089Z,71.22
2018-02-09T09:22:46.412Z,76.30
2018-02-09T09:25:12.780Z,72.55
2018-02-09T09:27:39.107Z,70.93
2018-02-09T09:30:05.463Z,85.25
2018-02-09T09:32:33.595Z,75.57
2018-02-09T09:35:00.044Z,71.70
2018-02-09T09:37:26.317Z,76.85
2018-02-09T09:39:52.616Z,75.72
2018-02-09T09:42:19.005Z,72.87
2018-02-09T09:44:46.169Z,79.47
2018-02-09T09:47:12.467Z,68.57
2018-02-09T09:49:39.540Z,71.72
2018-02-09T09:52:06.724Z,69.80
2018-02-09T09:54:32.991Z,72.07
2018-02-09T09:56:59.280Z,72.00
2018-02-09T09:59:25.569Z,64.78
2018-02-09T10:01:51.963Z,76.50
2018-02-09T10:04:18.230Z,78.85
2018-02-09T10:06:44.743Z,75.43
2018-02-09T10:09:11.109Z,72.72
2018-02-09T10:11:38.428Z,78.00
2018-02-09T10:14:04.755Z,67.30
2018-02-09T10:16:31.128Z,71.93
2018-02-09T10:18:57.521Z,80.57
2018-02-09T10:21:23.836Z,68.12
2018-02-09T10:23:50.155Z,76.90
2018-02-09T10:26:16.515Z,72.22
2018-02-09T10:28:42.827Z,75.97
2018-02-09T10:31:09.588Z,76.95
2018-02-09T10:33:36.734Z,70.60
2018-02-09T10:36:03.811Z,72.75
2018-02-09T10:38:30.322Z,70.87
2018-02-09T10:40:58.397Z,72.53
2018-02-09T10:43:24.719Z,62.28
2018-02-09T10:45:51.255Z,54.80
2018-02-09T10:48:17.564Z,65.95
2018-02-09T10:50:43.915Z,68.78
2018-02-09T10:53:11.188Z,69.45
2018-02-09T10:55:37.636Z,62.28
2018-02-09T10:58:04.753Z,63.80
2018-02-09T11:00:37.363Z,67.78
2018-02-09T11:03:04.407Z,66.78
2018-02-09T11:05:30.720Z,60.70
2018-02-09T11:07:57.795Z,61.53
2018-02-09T11:10:30.774Z,64.95
2018-02-09T11:12:57.172Z,62.22
2018-02-09T11:15:23.506Z,58.95
2018-02-09T11:17:49.944Z,68.50
2018-02-09T11:20:16.244Z,75.45
2018-02-09T11:22:42.611Z,64.62
2018-02-09T11:25:08.908Z,71.80
2018-02-09T11:27:35.371Z,56.40
2018-02-09T11:30:01.703Z,61.75
2018-02-09T11:32:27.999Z,63.00
2018-02-09T11:34:54.397Z,62.78
2018-02-09T11:37:23.435Z,61.75
2018-02-09T11:39:50.705Z,58.47
2018-02-09T11:42:16.996Z,53.13
2018-02-09T11:44:44.147Z,60.70
2018-02-09T11:47:10.427Z,63.40
2018-02-09T11:49:36.755Z,59.58
2018-02-09T11:52:03.034Z,70.10
2018-02-09T11:54:29.408Z,62.97
2018-02-09T11:56:55.743Z,63.28
2018-02-09T11:59:22.145Z,62.45
2018-02-09T12:01:48.710Z,55.03
2018-02-09T12:04:15.007Z,64.35
2018-02-09T12:06:41.683Z,61.30
2018-02-09T12:09:08.112Z,62.90
2018-02-09T12:11:34.514Z,59.88
2018-02-09T12:14:00.844Z,56.95
2018-02-09T12:16:27.319Z,54.10
2018-02-09T12:18:53.619Z,64.15
2018-02-09T12:21:19.979Z,63.47
2018-02-09T12:23:46.335Z,58.85
2018-02-09T12:26:12.628Z,51.08
2018-02-09T12:28:38.964Z,58.03
2018-02-09T12:31:05.294Z,51.03
2018-02-09T12:33:31.939Z,62.55
2018-02-09T12:35:58.226Z,54.63
2018-02-09T12:38:24.515Z,55.45
2018-02-09T12:40:51.442Z,49.47
2018-02-09T12:43:17.928Z,47.22
2018-02-09T12:45:45.006Z,48.35
2018-02-09T12:48:11.404Z,54.47
2018-02-09T12:50:38.482Z,43.97
2018-02-09T12:53:04.787Z,59.03
2018-02-09T12:55:31.819Z,48.13
2018-02-09T12:57:58.847Z,53.35
2018-02-09T13:00:25.163Z,47.92
2018-02-09T13:02:51.476Z,55.05
2018-02-09T13:05:18.155Z,50.55
2018-02-09T13:07:45.234Z,52.45
2018-02-09T13:10:12.139Z,62.42
2018-02-09T13:12:50.770Z,56.22
2018-02-09T13:15:17.044Z,51.80
2018-02-09T13:17:43.359Z,53.25
2018-02-09T13:20:09.663Z,53.00
2018-02-09T13:22:48.903Z,52.30
2018-02-09T13:25:15.453Z,56.25
2018-02-09T13:27:41.818Z,53.30
2018-02-09T13:30:08.949Z,48.92
2018-02-09T13:32:47.635Z,56.08
2018-02-09T13:35:14.074Z,50.95
2018-02-09T13:37:40.391Z,48.00
2018-02-09T13:40:06.851Z,54.47
2018-02-09T13:42:33.917Z,46.35
2018-02-09T13:45:00.356Z,58.40
2018-02-09T13:47:27.124Z,57.58
2018-02-09T13:49:53.407Z,48.63
2018-02-09T13:52:20.494Z,54.08
2018-02-09T13:54:47.598Z,49.35
2018-02-09T13:57:14.768Z,43.63
2018-02-09T13:59:41.056Z,44.22
2018-02-09T14:02:07.363Z,39.92
2018-02-09T14:04:33.747Z,47.47
2018-02-09T14:07:00.183Z,48.00
2018-02-09T14:09:27.283Z,42.78
2018-02-09T14:11:53.656Z,45.70
2018-02-09T14:14:20.036Z,37.83
2018-02-09T14:19:19.362Z,33.92
2018-02-09T14:21:45.727Z,30.52
2018-02-09T14:24:12.064Z,38.88
2018-02-09T14:26:38.341Z,33.15
2018-02-09T14:29:04.784Z,34.00
2018-02-09T14:31:31.206Z,37.22
2018-02-09T14:33:57.600Z,38.10
2018-02-09T14:36:23.954Z,31.83
2018-02-09T14:38:50.256Z,33.85
2018-02-09T14:41:16.570Z,32.10
2018-02-09T14:43:42.863Z,28.77
2018-02-09T14:46:09.167Z,35.22
2018-02-09T14:48:35.459Z,41.40
2018-02-09T14:51:01.824Z,34.85
2018-02-09T14:53:28.867Z,32.47
2018-02-09T14:55:55.908Z,29.48
2018-02-09T14:58:22.963Z,31.17
2018-02-09T15:00:50.003Z,30.60
2018-02-09T15:03:17.114Z,33.05
2018-02-09T15:05:43.416Z,33.63
2018-02-09T15:08:09.808Z,25.23
2018-02-09T15:10:36.182Z,28.42
2018-02-09T15:13:02.543Z,26.95
2018-02-09T15:15:28.898Z,26.98
2018-02-09T15:17:55.190Z,32.25
2018-02-09T15:20:21.541Z,36.45
2018-02-09T15:22:47.867Z,25.23
2018-02-09T15:25:14.248Z,32.28
2018-02-09T15:27:41.568Z,29.45
2018-02-09T15:30:08.703Z,27.15
2018-02-09T15:32:35.068Z,28.00
2018-02-09T15:35:01.411Z,31.92
2018-02-09T15:37:28.511Z,24.60
2018-02-09T15:39:54.914Z,27.33
2018-02-09T15:42:21.295Z,27.23
2018-02-09T15:44:47.621Z,28.40
2018-02-09T15:47:13.984Z,25.27
2018-02-09T15:49:40.386Z,28.62
2018-02-09T15:52:07.534Z,28.98
2018-02-09T15:54:33.849Z,22.90
2018-02-09T15:57:00.173Z,28.70
2018-02-09T15:59:26.534Z,21.70
2018-02-09T16:01:52.852Z,23.65
2018-02-09T16:04:19.160Z,18.83
2018-02-09T16:06:45.444Z,28.02
2018-02-09T16:09:12.526Z,23.25
2018-02-09T16:11:38.824Z,27.42
2018-02-09T16:14:06.043Z,28.33
2018-02-09T16:16:32.412Z,25.42
2018-02-09T16:18:58.731Z,26.27
2018-02-09T16:21:25.659Z,27.08
2018-02-09T16:23:51.956Z,31.08
2018-02-09T16:26:18.919Z,22.90
2018-02-09T16:28:45.223Z,23.08
2018-02-09T16:31:11.618Z,32.08
2018-02-09T16:33:37.903Z,24.40
2018-02-09T16:36:04.211Z,25.17
2018-02-09T16:38:30.556Z,27.37
2018-02-09T16:40:56.884Z,24.48
2018-02-09T16:43:23.198Z,23.70
2018-02-09T16:45:49.615Z,44.05
2018-02-09T16:48:16.084Z,23.90
2018-02-09T16:50:42.445Z,29.15
2018-02-09T16:53:08.875Z,23.77
2018-02-09T16:55:35.163Z,27.42
2018-02-09T16:58:01.473Z,30.40
2018-02-09T17:00:27.815Z,28.58
2018-02-09T17:02:54.159Z,28.85
2018-02-09T17:05:20.518Z,18.35
2018-02-09T17:07:46.888Z,19.65
2018-02-09T17:10:13.273Z,22.08
2018-02-09T17:12:39.647Z,28.65
2018-02-09T17:15:06.056Z,24.98
2018-02-09T17:17:32.359Z,28.20
2018-02-09T17:19:58.723Z,33.72
2018-02-09T17:22:25.074Z,29.45
2018-02-09T17:24:51.356Z,22.90
2018-02-09T17:27:17.720Z,24.70
2018-02-09T17:29:44.023Z,26.98
2018-02-09T17:32:10.347Z,28.50
2018-02-09T17:34:36.805Z,30.45
2018-02-09T17:37:03.856Z,22.10
2018-02-09T17:39:30.952Z,30.88
2018-02-09T17:41:58.283Z,25.08
2018-02-09T17:44:24.645Z,25.37
2018-02-09T17:46:50.967Z,22.50
2018-02-09T17:49:17.372Z,21.05
2018-02-09T17:51:43.639Z,26.83
2018-02-09T17:54:10.760Z,23.73
2018-02-09T17:56:37.083Z,24.25
2018-02-09T17:59:04.172Z,29.20
2018-02-09T18:01:30.564Z,29.83
2018-02-09T18:03:56.845Z,31.85
2018-02-09T18:06:23.204Z,30.15
2018-02-09T18:08:49.524Z,39.47
2018-02-09T18:11:16.290Z,22.58
2018-02-09T18:13:43.352Z,25.58
2018-02-09T18:16:10.801Z,30.60
2018-02-09T18:18:37.127Z,23.40
2018-02-09T18:21:03.592Z,30.40
2018-02-09T18:23:30.085Z,27.58
2018-02-09T18:25:57.160Z,21.02
2018-02-09T18:28:24.964Z,31.98
2018-02-09T18:30:51.266Z,46.95
2018-02-09T18:33:18.135Z,28.45
2018-02-09T18:35:44.653Z,25.25
2018-02-09T18:38:11.005Z,41.00
2018-02-09T18:40:37.595Z,26.45
2018-02-09T18:43:03.942Z,32.85
2018-02-09T18:45:30.295Z,21.58
2018-02-09T18:47:56.645Z,29.33
2018-02-09T18:50:23.083Z,18.52
2018-02-09T18:52:49.479Z,24.73
2018-02-09T18:55:15.937Z,26.08
2018-02-09T18:57:43.871Z,20.73
2018-02-09T19:00:10.215Z,23.95
2018-02-09T19:02:37.267Z,25.05
2018-02-09T19:05:03.579Z,21.62
2018-02-09T19:07:29.912Z,22.45
2018-02-09T19:09:56.987Z,23.87
2018-02-09T19:12:23.518Z,22.48
2018-02-09T19:14:49.870Z,23.98
2018-02-09T19:17:16.252Z,19.33
2018-02-09T19:19:43.931Z,19.50
2018-02-09T19:22:10.293Z,23.95
2018-02-09T19:24:36.677Z,23.95
2018-02-09T19:27:03.464Z,19.75
2018-02-09T19:29:29.885Z,20.10
2018-02-09T19:31:56.196Z,21.25
2018-02-09T19:34:23.295Z,19.67
2018-02-09T19:36:50.083Z,19.98
2018-02-09T19:39:18.144Z,22.25
2018-02-09T19:41:44.548Z,22.00
2018-02-09T19:44:10.861Z,24.37
2018-02-09T19:46:37.194Z,22.65
2018-02-09T19:49:03.598Z,21.77
2018-02-09T19:51:29.944Z,20.80
2018-02-09T19:53:56.283Z,19.20
2018-02-09T19:56:22.616Z,20.40
2018-02-09T19:58:49.072Z,26.60
2018-02-09T20:01:16.366Z,18.60
2018-02-09T20:03:43.992Z,25.05
2018-02-09T20:06:11.046Z,20.75
2018-02-09T20:08:38.133Z,25.02
2018-02-09T20:11:06.260Z,23.27
2018-02-09T20:13:33.455Z,27.08
2018-02-09T20:16:00.084Z,30.23
2018-02-09T20:18:26.475Z,29.77
2018-02-09T20:20:52.832Z,27.17
2018-02-09T20:23:20.005Z,27.60
2018-02-09T20:25:47.244Z,32.17
2018-02-09T20:28:13.644Z,22.90
2018-02-09T20:30:39.951Z,28.50
2018-02-09T20:33:06.275Z,28.33
2018-02-09T20:35:32.584Z,32.30
2018-02-09T20:38:00.087Z,29.05
2018-02-09T20:40:26.736Z,30.35
2018-02-09T20:42:53.039Z,28.77
2018-02-09T20:45:19.458Z,26.05
2018-02-09T20:47:45.802Z,27.25
2018-02-09T20:50:12.159Z,26.08
2018-02-09T20:52:38.540Z,26.87
2018-02-09T20:55:04.981Z,21.33
2018-02-09T20:57:31.287Z,26.75
2018-02-09T20:59:58.393Z,34.55
2018-02-09T21:02:25.633Z,26.80
2018-02-09T21:04:52.906Z,37.50
2018-02-09T21:07:19.270Z,23.75
2018-02-09T21:09:45.649Z,29.77
2018-02-09T21:12:12.027Z,29.70
2018-02-09T21:14:38.423Z,30.33
2018-02-09T21:17:04.710Z,31.50
2018-02-09T21:19:31.748Z,24.02
2018-02-09T21:21:58.062Z,33.60
2018-02-09T21:24:24.558Z,30.52
2018-02-09T21:26:50.882Z,30.08
2018-02-09T21:29:17.183Z,30.20
2018-02-09T21:31:44.392Z,38.28
2018-02-09T21:34:10.775Z,28.48
2018-02-09T21:36:37.818Z,31.48
2018-02-09T21:39:04.320Z,33.00
2018-02-09T21:41:30.731Z,28.77
2018-02-09T21:43:57.088Z,34.38
2018-02-09T21:46:23.473Z,31.30
2018-02-09T21:48:50.032Z,28.23
2018-02-09T21:51:16.397Z,35.13
2018-02-09T21:53:43.508Z,30.73
2018-02-09T21:56:09.840Z,34.22
2018-02-09T21:58:36.191Z,31.50
2018-02-09T22:01:02.530Z,35.13
2018-02-09T22:03:28.872Z,30.10
2018-02-09T22:05:55.260Z,28.08
2018-02-09T22:08:21.651Z,42.17
2018-02-09T22:10:49.808Z,30.50
2018-02-09T22:13:16.918Z,34.10
2018-02-09T22:15:44.305Z,35.28
2018-02-09T22:18:10.662Z,33.72
2018-02-09T22:20:36.942Z,33.28
2018-02-09T22:23:03.367Z,31.77
2018-02-09T22:25:29.733Z,40.05
2018-02-09T22:27:56.052Z,35.40
2018-02-09T22:30:22.363Z,30.88
2018-02-09T22:32:48.648Z,36.53
2018-02-09T22:35:15.691Z,39.20
2018-02-09T22:37:42.842Z,48.17
2018-02-09T22:40:09.219Z,33.83
2018-02-09T22:42:35.523Z,34.47
2018-02-09T22:45:01.856Z,28.77
2018-02-09T22:47:28.163Z,36.20
2018-02-09T22:49:54.540Z,37.72
2018-02-09T22:52:20.903Z,32.63
2018-02-09T22:54:47.264Z,36.88
2018-02-09T22:57:13.564Z,32.90
2018-02-09T22:59:40.302Z,33.25
2018-02-09T23:02:06.659Z,39.10
2018-02-09T23:04:33.707Z,35.85
2018-02-09T23:07:00.177Z,34.83
2018-02-09T23:09:26.539Z,35.97
2018-02-09T23:11:52.920Z,30.92
2018-02-09T23:14:20.020Z,35.25
2018-02-09T23:16:46.351Z,31.75
2018-02-09T23:19:13.416Z,29.85
2018-02-09T23:21:41.278Z,37.65
2018-02-09T23:24:07.578Z,35.85
2018-02-09T23:26:34.001Z,42.17
2018-02-09T23:29:00.479Z,34.20
2018-02-09T23:31:26.863Z,36.83
2018-02-09T23:33:54.209Z,34.42
2018-02-09T23:36:20.664Z,37.92
2018-02-09T23:38:46.966Z,39.10
2018-02-09T23:41:14.002Z,35.33
2018-02-09T23:43:40.271Z,40.55
2018-02-09T23:46:06.600Z,41.20
2018-02-09T23:48:34.105Z,38.45
2018-02-09T23:51:00.708Z,38.92
2018-02-09T23:53:27.746Z,39.50
2018-02-09T23:55:54.115Z,35.88
2018-02-09T23:58:21.489Z,32.20
